Terminal Aerodrome Forecast
Issued by NWS Kansas City/Pleasant Hill, MO

Home | Current Version | Previous Version | Text Only | Print | Product List | Glossary On
Versions: 1 2 3 4 5 6 7 8 9 10 11 12 13 14
000
FTUS43 KEAX 240515 AAC
TAFMCI
TAF AMD
KMCI 240515Z 2405/2424 33008KT 5SM BR OVC006
     FM241200 30013KT P6SM BKN010
     FM242000 31019KT P6SM OVC020
     FM242100 31019KT P6SM VCSH OVC015=

USA.gov is the U.S. government's official web portal to all federal, state and local government web resources and services.